Time;durP1;ratioP1;P1;durP2;ratioP2;P2;SDS_P1;SDS_P2;PMS_P1;PMS_P2;Temp;Humidity;BMP_temperature;BMP_pressure;BME280_temperature;BME280_humidity;BME280_pressure;Samples;Min_cycle;Max_cycle;Signal;HPM_P1;HPM_P2
2023/06/22 00:03:29;;;;;;;48.80;43.47;;;19.00;99.90;;;;;;5879239;24;20189;-81
2023/06/22 00:23:48;;;;;;;46.93;42.17;;;19.00;99.90;;;;;;5791717;24;20243;-82
2023/06/22 00:54:13;;;;;;;47.40;42.40;;;18.80;99.90;;;;;;5942978;23;20150;-81
2023/06/22 01:24:25;;;;;;;52.30;46.30;;;18.40;99.90;;;;;;5761158;24;20504;-83
2023/06/22 02:30:22;;;;;;;61.17;52.40;;;18.60;99.90;;;;;;5895445;23;20206;-80
2023/06/22 03:06:13;;;;;;;63.90;55.07;;;19.60;99.90;;;;;;6080472;22;20635;-85
2023/06/22 03:10:29;;;;;;;63.57;52.90;;;19.70;99.90;;;;;;6033264;22;20179;-83
2023/06/22 03:36:24;;;;;;;55.13;48.53;;;20.00;99.90;;;;;;5849805;23;20198;-82
2023/06/22 04:30:57;;;;;;;42.03;37.13;;;21.10;99.90;;;;;;5804281;24;20264;-83
2023/06/22 05:21:40;;;;;;;38.63;34.05;;;21.70;99.90;;;;;;5853435;23;20510;-80
2023/06/22 05:47:23;;;;;;;37.92;32.28;;;22.10;99.90;;;;;;5801924;23;20563;-81
2023/06/22 06:17:48;;;;;;;35.83;32.03;;;22.50;99.90;;;;;;5789299;24;20431;-85
2023/06/22 06:38:07;;;;;;;28.77;26.00;;;22.60;99.90;;;;;;5950875;23;20329;-85
2023/06/22 07:33:52;;;;;;;20.27;17.20;;;25.10;99.90;;;;;;5805837;23;20181;-81
2023/06/22 07:58:35;;;;;;;11.27;10.18;;;25.30;92.80;;;;;;5903537;23;20397;-81
2023/06/22 08:29:15;;;;;;;7.57;6.90;;;26.20;85.30;;;;;;5921648;23;20569;-84
2023/06/22 09:20:28;;;;;;;7.07;6.45;;;26.20;83.60;;;;;;5945027;23;20236;-80
2023/06/22 09:50:38;;;;;;;6.82;5.03;;;26.60;79.00;;;;;;5776238;23;20179;-80
2023/06/22 10:11:11;;;;;;;5.43;4.10;;;26.70;63.30;;;;;;5561940;25;20418;-83
2023/06/22 11:21:56;;;;;;;6.57;5.20;;;27.40;60.10;;;;;;5487954;25;20219;-81
2023/06/22 11:47:30;;;;;;;6.50;5.30;;;27.50;61.60;;;;;;5653043;24;20544;-82
2023/06/22 12:12:52;;;;;;;5.97;5.25;;;28.30;57.40;;;;;;5798795;23;20198;-81
2023/06/22 12:38:13;;;;;;;5.35;4.93;;;29.30;55.40;;;;;;5879530;23;20181;-82
2023/06/22 13:03:30;;;;;;;7.28;5.00;;;29.40;54.20;;;;;;5817867;23;20246;-83
2023/06/22 14:24:27;;;;;;;7.50;5.38;;;35.40;50.70;;;;;;5740622;24;20178;-82
2023/06/22 16:11:20;;;;;;;6.15;5.63;;;30.00;47.40;;;;;;5564760;24;20221;-80
2023/06/22 16:31:26;;;;;;;6.13;5.53;;;28.50;47.90;;;;;;5732280;24;20506;-82
2023/06/22 17:12:12;;;;;;;6.18;5.63;;;27.60;49.80;;;;;;5833629;23;20627;-82
2023/06/22 17:37:26;;;;;;;7.05;6.45;;;26.90;50.40;;;;;;5800269;23;20262;-83
2023/06/22 18:08:00;;;;;;;7.20;5.90;;;26.40;50.20;;;;;;5939606;23;20167;-84
2023/06/22 18:28:15;;;;;;;7.35;6.65;;;25.60;52.00;;;;;;5902982;23;20502;-84
2023/06/22 19:13:53;;;;;;;10.13;9.15;;;23.70;76.10;;;;;;5707670;24;20553;-82
2023/06/22 19:38:36;;;;;;;8.63;7.75;;;22.80;80.70;;;;;;5825562;23;20508;-83
2023/06/22 20:24:50;;;;;;;12.60;10.13;;;21.00;95.40;;;;;;5795430;24;20799;-83
2023/06/22 20:44:49;;;;;;;13.63;11.27;;;20.00;99.90;;;;;;5818546;23;20678;-81
2023/06/22 21:10:27;;;;;;;12.17;10.80;;;19.10;99.90;;;;;;5835298;23;20318;-83
2023/06/22 21:35:47;;;;;;;10.47;9.37;;;19.10;99.90;;;;;;5688788;24;20345;-83
2023/06/22 22:06:08;;;;;;;8.53;7.70;;;20.00;92.50;;;;;;5691294;24;20185;-83
2023/06/22 23:06:51;;;;;;;8.83;7.27;;;19.80;86.80;;;;;;5723510;24;20552;-84
2023/06/22 23:37:08;;;;;;;9.43;8.43;;;18.80;99.70;;;;;;5912072;23;20395;-83
2023/06/22 23:57:57;;;;;;;9.37;8.47;;;17.80;99.90;;;;;;5856545;23;20571;-83
